createdAt,value
2022-12-05T00:00:10.991Z,22.09
2022-12-05T00:01:15.209Z,22.08
2022-12-05T00:02:19.469Z,22.07
2022-12-05T00:03:23.914Z,22.1
2022-12-05T00:04:28.263Z,22.1
2022-12-05T00:05:32.841Z,22.1
2022-12-05T00:06:37.055Z,22.08
2022-12-05T00:07:41.309Z,22.07
2022-12-05T00:08:45.645Z,22.06
2022-12-05T00:09:49.896Z,22.04
2022-12-05T00:10:54.126Z,22.06
2022-12-05T00:11:58.373Z,22.05
2022-12-05T00:13:02.615Z,22.05
2022-12-05T00:14:06.842Z,22.08
2022-12-05T00:15:11.129Z,22.06
2022-12-05T00:16:15.375Z,22.05
2022-12-05T00:17:19.846Z,22.03
2022-12-05T00:18:24.062Z,22.03
2022-12-05T00:19:28.286Z,22.02
2022-12-05T00:20:32.518Z,22.02
2022-12-05T00:21:36.753Z,22
2022-12-05T00:22:40.990Z,21.99
2022-12-05T00:23:45.226Z,22.01
2022-12-05T00:24:49.490Z,22.01
2022-12-05T00:25:53.716Z,22.02
2022-12-05T00:26:57.968Z,22.01
2022-12-05T00:28:02.243Z,22.01
2022-12-05T00:29:06.473Z,22
2022-12-05T00:30:10.694Z,22
2022-12-05T00:31:14.924Z,22
2022-12-05T00:32:19.354Z,22
2022-12-05T00:33:23.888Z,21.99
2022-12-05T00:34:28.125Z,21.99
2022-12-05T00:35:32.584Z,21.98
2022-12-05T00:36:36.836Z,21.99
2022-12-05T00:37:41.064Z,21.99
2022-12-05T00:38:45.311Z,21.99
2022-12-05T00:39:49.524Z,21.98
2022-12-05T00:40:53.728Z,21.99
2022-12-05T00:41:57.943Z,21.99
2022-12-05T00:43:02.179Z,21.98
2022-12-05T00:44:06.449Z,21.99
2022-12-05T00:45:10.683Z,21.99
2022-12-05T00:46:14.940Z,21.98
2022-12-05T00:47:19.404Z,21.96
2022-12-05T00:48:23.610Z,21.93
2022-12-05T00:49:27.864Z,21.93
2022-12-05T00:50:32.106Z,21.92
2022-12-05T00:51:36.328Z,21.92
2022-12-05T00:52:40.544Z,21.92
2022-12-05T00:53:44.778Z,21.92
2022-12-05T00:54:49.017Z,21.9
2022-12-05T00:55:53.249Z,21.91
2022-12-05T00:56:57.493Z,21.9
2022-12-05T00:58:01.699Z,21.91
2022-12-05T00:59:05.893Z,21.9
2022-12-05T01:00:10.120Z,21.91
2022-12-05T01:01:14.423Z,21.88
2022-12-05T01:02:19.060Z,21.86
2022-12-05T01:03:23.368Z,21.86
2022-12-05T01:04:27.899Z,21.86
2022-12-05T01:05:32.135Z,21.86
2022-12-05T01:06:36.343Z,21.84
2022-12-05T01:07:40.609Z,21.84
2022-12-05T01:08:45.015Z,21.83
2022-12-05T01:09:49.252Z,21.84
2022-12-05T01:10:55.957Z,21.84
2022-12-05T01:12:00.172Z,21.85
2022-12-05T01:13:04.434Z,21.85
2022-12-05T01:14:08.653Z,21.84
2022-12-05T01:15:12.913Z,21.85
2022-12-05T01:16:17.260Z,21.84
2022-12-05T01:17:21.765Z,21.85
2022-12-05T01:18:26.043Z,21.82
2022-12-05T01:19:30.269Z,21.82
2022-12-05T01:20:34.492Z,21.82
2022-12-05T01:21:38.715Z,21.82
2022-12-05T01:22:42.933Z,21.82
2022-12-05T01:23:47.192Z,21.81
2022-12-05T01:24:51.388Z,21.84
2022-12-05T01:25:55.585Z,21.81
2022-12-05T01:26:59.819Z,21.81
2022-12-05T01:28:04.060Z,21.81
2022-12-05T01:29:08.341Z,21.81
2022-12-05T01:30:12.854Z,21.81
2022-12-05T01:31:17.149Z,21.81
2022-12-05T01:32:21.958Z,21.81
2022-12-05T01:33:26.658Z,21.8
2022-12-05T01:34:30.985Z,21.77
2022-12-05T01:35:35.252Z,21.75
2022-12-05T01:36:39.543Z,21.76
2022-12-05T01:37:43.839Z,21.75
2022-12-05T01:38:48.139Z,21.75
2022-12-05T01:39:52.509Z,21.74
2022-12-05T01:40:57.236Z,21.72
2022-12-05T01:42:01.459Z,21.73
2022-12-05T01:43:05.727Z,21.73
2022-12-05T01:44:10.010Z,21.72
2022-12-05T01:45:14.344Z,21.7
2022-12-05T01:46:18.663Z,21.7
2022-12-05T01:47:23.191Z,21.71
2022-12-05T01:48:27.440Z,21.7
2022-12-05T01:49:31.772Z,21.72
2022-12-05T01:50:36.045Z,21.72
2022-12-05T01:51:40.407Z,21.71
2022-12-05T01:52:44.645Z,21.75
2022-12-05T01:53:48.872Z,21.71
2022-12-05T01:54:53.216Z,21.71
2022-12-05T01:55:57.470Z,21.7
2022-12-05T01:57:01.694Z,21.72
2022-12-05T01:58:05.905Z,21.72
2022-12-05T01:59:10.105Z,21.74
2022-12-05T02:00:14.335Z,21.71
2022-12-05T02:01:18.641Z,21.71
2022-12-05T02:02:23.265Z,21.69
2022-12-05T02:03:27.782Z,21.68
2022-12-05T02:04:32.015Z,21.69
2022-12-05T02:05:36.287Z,21.67
2022-12-05T02:06:40.532Z,21.68
2022-12-05T02:07:44.775Z,21.67
2022-12-05T02:08:51.412Z,21.64
2022-12-05T02:09:55.844Z,21.65
2022-12-05T02:11:01.260Z,21.67
2022-12-05T02:12:05.507Z,21.66
2022-12-05T02:13:09.710Z,21.66
2022-12-05T02:14:13.926Z,21.66
2022-12-05T02:15:18.162Z,21.65
2022-12-05T02:16:22.481Z,21.66
2022-12-05T02:17:26.885Z,21.67
2022-12-05T02:18:31.114Z,21.67
2022-12-05T02:19:35.328Z,21.66
2022-12-05T02:20:39.554Z,21.64
2022-12-05T02:21:43.789Z,21.64
2022-12-05T02:22:48.014Z,21.64
2022-12-05T02:23:52.236Z,21.64
2022-12-05T02:24:56.524Z,21.64
2022-12-05T02:26:01.743Z,21.66
2022-12-05T02:27:05.975Z,21.65
2022-12-05T02:28:10.218Z,21.64
2022-12-05T02:29:14.421Z,21.6
2022-12-05T02:30:18.689Z,21.61
2022-12-05T02:31:22.938Z,21.65
2022-12-05T02:32:27.448Z,21.61
2022-12-05T02:33:31.674Z,21.61
2022-12-05T02:34:35.876Z,21.62
2022-12-05T02:35:40.115Z,21.62
2022-12-05T02:36:44.323Z,21.61
2022-12-05T02:37:48.556Z,21.62
2022-12-05T02:38:52.775Z,21.6
2022-12-05T02:39:57.458Z,21.61
2022-12-05T02:41:02.630Z,21.58
2022-12-05T02:42:06.929Z,21.58
2022-12-05T02:43:11.153Z,21.59
2022-12-05T02:44:15.372Z,21.59
2022-12-05T02:45:19.605Z,21.61
2022-12-05T02:46:23.879Z,21.58
2022-12-05T02:47:28.421Z,21.57
2022-12-05T02:48:32.618Z,21.58
2022-12-05T02:49:36.838Z,21.58
2022-12-05T02:50:41.072Z,21.58
2022-12-05T02:51:45.277Z,21.56
2022-12-05T02:52:49.517Z,21.57
2022-12-05T02:53:53.721Z,21.56
2022-12-05T02:54:57.938Z,21.56
2022-12-05T02:56:02.181Z,21.56
2022-12-05T02:57:06.401Z,21.55
2022-12-05T02:58:10.696Z,21.55
2022-12-05T02:59:18.587Z,21.55
2022-12-05T03:00:27.086Z,21.54
2022-12-05T03:01:31.384Z,21.55
2022-12-05T03:02:36.101Z,21.52
2022-12-05T03:03:40.383Z,21.54
2022-12-05T03:04:44.673Z,21.52
2022-12-05T03:05:49.035Z,21.51
2022-12-05T03:06:53.248Z,21.53
2022-12-05T03:07:57.519Z,21.52
2022-12-05T03:09:02.061Z,21.53
2022-12-05T03:10:06.274Z,21.54
2022-12-05T03:11:10.494Z,21.53
2022-12-05T03:12:14.756Z,21.53
2022-12-05T03:13:18.965Z,21.52
2022-12-05T03:14:23.244Z,21.5
2022-12-05T03:15:27.497Z,21.5
2022-12-05T03:16:31.759Z,21.51
2022-12-05T03:17:36.273Z,21.49
2022-12-05T03:18:40.516Z,21.49
2022-12-05T03:19:44.850Z,21.49
2022-12-05T03:20:49.081Z,21.5
2022-12-05T03:21:53.327Z,21.5
2022-12-05T03:22:57.540Z,21.49
2022-12-05T03:24:01.774Z,21.48
2022-12-05T03:25:06.026Z,21.48
2022-12-05T03:26:10.346Z,21.47
2022-12-05T03:27:14.603Z,21.48
2022-12-05T03:28:18.821Z,21.46
2022-12-05T03:29:23.060Z,21.48
2022-12-05T03:30:27.321Z,21.47
2022-12-05T03:31:31.753Z,21.47
2022-12-05T03:32:35.968Z,21.46
2022-12-05T03:33:40.180Z,21.47
2022-12-05T03:34:44.403Z,21.47
2022-12-05T03:35:48.635Z,21.47
2022-12-05T03:36:53.297Z,21.47
2022-12-05T03:37:57.581Z,21.49
2022-12-05T03:39:01.791Z,21.47
2022-12-05T03:40:06.026Z,21.48
2022-12-05T03:41:10.228Z,21.46
2022-12-05T03:42:14.446Z,21.49
2022-12-05T03:43:18.686Z,21.49
2022-12-05T03:44:22.994Z,21.48
2022-12-05T03:45:27.195Z,21.46
2022-12-05T03:46:31.501Z,21.47
2022-12-05T03:47:36.069Z,21.45
2022-12-05T03:48:40.271Z,21.44
2022-12-05T03:49:44.595Z,21.45
2022-12-05T03:50:48.815Z,21.45
2022-12-05T03:51:53.016Z,21.46
2022-12-05T03:53:18.986Z,21.46
2022-12-05T03:54:24.471Z,21.44
2022-12-05T03:55:28.688Z,21.44
2022-12-05T03:56:33.009Z,21.44
2022-12-05T03:57:37.228Z,21.43
2022-12-05T03:58:41.449Z,21.43
2022-12-05T03:59:45.661Z,21.44
2022-12-05T04:00:49.888Z,21.43
2022-12-05T04:01:54.162Z,21.44
2022-12-05T04:02:58.640Z,21.45
2022-12-05T04:04:03.008Z,21.45
2022-12-05T04:05:07.247Z,21.45
2022-12-05T04:06:11.461Z,21.43
2022-12-05T04:07:15.898Z,21.43
2022-12-05T04:08:20.201Z,21.42
2022-12-05T04:09:24.718Z,21.43
2022-12-05T04:10:28.930Z,21.41
2022-12-05T04:11:33.189Z,21.42
2022-12-05T04:12:37.448Z,21.42
2022-12-05T04:13:41.666Z,21.39
2022-12-05T04:14:45.883Z,21.42
2022-12-05T04:15:50.175Z,21.42
2022-12-05T04:16:54.587Z,21.41
2022-12-05T04:17:58.781Z,21.41
2022-12-05T04:19:03.031Z,21.41
2022-12-05T04:20:07.274Z,21.41
2022-12-05T04:21:11.512Z,21.38
2022-12-05T04:22:15.775Z,21.39
2022-12-05T04:23:20.000Z,21.43
2022-12-05T04:24:24.238Z,21.42
2022-12-05T04:25:28.487Z,21.41
2022-12-05T04:26:32.700Z,21.41
2022-12-05T04:27:36.920Z,21.43
2022-12-05T04:28:41.164Z,21.47
2022-12-05T04:29:45.401Z,21.45
2022-12-05T04:30:49.648Z,21.44
2022-12-05T04:31:54.145Z,21.42
2022-12-05T04:32:58.363Z,21.44
2022-12-05T04:34:02.596Z,21.44
2022-12-05T04:35:06.849Z,21.42
2022-12-05T04:36:11.084Z,21.4
2022-12-05T04:37:15.305Z,21.4
2022-12-05T04:38:19.525Z,21.39
2022-12-05T04:39:23.748Z,21.36
2022-12-05T04:40:28.006Z,21.38
2022-12-05T04:41:32.231Z,21.38
2022-12-05T04:42:36.439Z,21.38
2022-12-05T04:43:40.691Z,21.38
2022-12-05T04:44:44.903Z,21.37
2022-12-05T04:45:49.154Z,21.37
2022-12-05T04:46:53.426Z,21.38
2022-12-05T04:47:58.061Z,21.41
2022-12-05T04:49:02.338Z,21.43
2022-12-05T04:50:06.549Z,21.41
2022-12-05T04:51:10.787Z,21.42
2022-12-05T04:52:15.000Z,21.39
2022-12-05T04:53:19.228Z,21.41
2022-12-05T04:54:23.434Z,21.4
2022-12-05T04:55:27.697Z,21.39
2022-12-05T04:56:31.939Z,21.39
2022-12-05T04:57:36.154Z,21.42
2022-12-05T04:58:40.372Z,21.39
2022-12-05T04:59:44.595Z,21.38
2022-12-05T05:00:48.848Z,21.45
2022-12-05T05:01:53.082Z,21.49
2022-12-05T05:02:57.578Z,21.4
2022-12-05T05:04:01.964Z,21.37
2022-12-05T05:05:09.505Z,21.34
2022-12-05T05:06:17.480Z,21.27
2022-12-05T05:07:21.705Z,21.3
2022-12-05T05:08:25.951Z,21.31
2022-12-05T05:09:30.163Z,21.37
2022-12-05T05:10:34.399Z,21.4
2022-12-05T05:11:38.642Z,21.47
2022-12-05T05:12:42.885Z,21.54
2022-12-05T05:13:47.235Z,21.61
2022-12-05T05:14:51.725Z,21.69
2022-12-05T05:15:55.988Z,21.78
2022-12-05T05:17:00.416Z,21.88
2022-12-05T05:18:04.646Z,21.96
2022-12-05T05:19:08.892Z,22
2022-12-05T05:20:14.459Z,22.08
2022-12-05T05:21:23.346Z,22.11
2022-12-05T05:22:27.575Z,22.16
2022-12-05T05:23:31.822Z,22.22
2022-12-05T05:24:36.071Z,22.25
2022-12-05T05:25:40.347Z,22.27
2022-12-05T05:26:44.598Z,22.31
2022-12-05T05:27:48.877Z,22.32
2022-12-05T05:28:53.111Z,22.33
2022-12-05T05:29:57.698Z,22.38
2022-12-05T05:31:02.729Z,22.39
2022-12-05T05:32:07.141Z,22.4
2022-12-05T05:33:11.362Z,22.41
2022-12-05T05:34:15.585Z,22.43
2022-12-05T05:35:19.842Z,22.45
2022-12-05T05:36:24.106Z,22.47
2022-12-05T05:37:28.324Z,22.48
2022-12-05T05:38:32.558Z,22.51
2022-12-05T05:39:36.767Z,22.53
2022-12-05T05:40:41.007Z,22.53
2022-12-05T05:41:45.256Z,22.54
2022-12-05T05:42:49.472Z,22.57
2022-12-05T05:43:53.905Z,22.55
2022-12-05T05:44:58.118Z,22.57
2022-12-05T05:46:02.331Z,22.57
2022-12-05T05:47:06.849Z,22.58
2022-12-05T05:48:11.339Z,22.58
2022-12-05T05:49:15.569Z,22.59
2022-12-05T05:50:21.907Z,22.6
2022-12-05T05:51:26.331Z,22.6
2022-12-05T05:52:30.576Z,22.6
2022-12-05T05:53:34.785Z,22.59
2022-12-05T05:54:39.258Z,22.58
2022-12-05T05:55:43.484Z,22.57
2022-12-05T05:56:47.694Z,22.55
2022-12-05T05:57:51.928Z,22.54
2022-12-05T05:58:56.168Z,22.52
2022-12-05T06:00:00.761Z,22.48
2022-12-05T06:01:05.139Z,22.46
2022-12-05T06:02:09.373Z,22.42
2022-12-05T06:03:13.654Z,22.4
2022-12-05T06:04:18.270Z,22.38
2022-12-05T06:05:22.664Z,22.35
2022-12-05T06:06:26.926Z,22.32
2022-12-05T06:07:31.194Z,22.29
2022-12-05T06:08:35.633Z,22.26
2022-12-05T06:09:39.874Z,22.24
2022-12-05T06:10:44.079Z,22.22
2022-12-05T06:11:48.343Z,22.21
2022-12-05T06:12:52.559Z,22.18
2022-12-05T06:13:56.806Z,22.16
2022-12-05T06:15:01.035Z,22.13
2022-12-05T06:16:05.309Z,22.11
2022-12-05T06:17:09.799Z,22.08
2022-12-05T06:18:14.036Z,22.06
2022-12-05T06:19:18.267Z,22.04
2022-12-05T06:20:22.464Z,22.02
2022-12-05T06:21:26.664Z,21.99
2022-12-05T06:22:30.899Z,21.97
2022-12-05T06:23:35.141Z,21.95
2022-12-05T06:24:39.367Z,21.92
2022-12-05T06:25:43.595Z,21.91
2022-12-05T06:26:47.850Z,21.9
2022-12-05T06:27:52.098Z,21.88
2022-12-05T06:28:56.323Z,21.87
2022-12-05T06:30:00.948Z,21.86
2022-12-05T06:31:05.462Z,21.86
2022-12-05T06:32:09.874Z,21.85
2022-12-05T06:33:14.085Z,21.87
2022-12-05T06:34:18.310Z,21.89
2022-12-05T06:35:22.569Z,21.93
2022-12-05T06:36:26.767Z,21.96
2022-12-05T06:37:30.979Z,22
2022-12-05T06:38:39.120Z,22.04
2022-12-05T06:39:46.095Z,22.08
2022-12-05T06:40:50.382Z,22.09
2022-12-05T06:41:54.584Z,22.1
2022-12-05T06:42:58.823Z,22.1
2022-12-05T06:44:03.050Z,22.11
2022-12-05T06:45:07.289Z,22.11
2022-12-05T06:46:11.695Z,22.11
2022-12-05T06:47:16.378Z,22.1
2022-12-05T06:48:20.617Z,22.1
2022-12-05T06:49:29.410Z,22.08
2022-12-05T06:50:40.651Z,22.07
2022-12-05T06:51:44.913Z,22.06
2022-12-05T06:52:49.164Z,22.05
2022-12-05T06:53:53.406Z,22.04
2022-12-05T06:54:57.637Z,22.03
2022-12-05T06:56:01.892Z,22.02
2022-12-05T06:57:06.113Z,22
2022-12-05T06:58:10.362Z,22.01
2022-12-05T06:59:14.587Z,21.99
2022-12-05T07:00:18.898Z,21.97
2022-12-05T07:01:23.254Z,21.96
2022-12-05T07:02:27.866Z,21.93
2022-12-05T07:03:32.295Z,21.92
2022-12-05T07:04:36.501Z,21.91
2022-12-05T07:05:40.738Z,21.9
2022-12-05T07:06:48.883Z,21.88
2022-12-05T07:07:54.717Z,21.88
2022-12-05T07:08:59.137Z,21.85
2022-12-05T07:10:03.354Z,21.83
2022-12-05T07:11:07.638Z,21.82
2022-12-05T07:12:11.856Z,21.8
2022-12-05T07:13:16.076Z,21.78
2022-12-05T07:15:54.550Z,21.78
2022-12-05T07:16:59.057Z,21.76
2022-12-05T07:18:03.507Z,21.77
2022-12-05T07:19:07.723Z,21.77
2022-12-05T07:20:11.949Z,21.76
2022-12-05T07:21:16.254Z,21.76
2022-12-05T07:22:20.574Z,21.76
2022-12-05T07:23:24.810Z,21.76
2022-12-05T07:24:29.025Z,21.75
2022-12-05T07:25:33.261Z,21.76
2022-12-05T07:26:37.477Z,21.77
2022-12-05T07:27:41.710Z,21.79
2022-12-05T07:28:45.951Z,21.85
2022-12-05T07:29:50.153Z,21.92
2022-12-05T07:30:54.375Z,22
2022-12-05T07:31:58.661Z,22.08
2022-12-05T07:33:03.289Z,22.19
2022-12-05T07:34:07.531Z,22.25
2022-12-05T07:35:11.745Z,22.31
2022-12-05T07:36:15.985Z,22.34
2022-12-05T07:37:20.240Z,22.35
2022-12-05T07:38:24.487Z,22.38
2022-12-05T07:39:28.719Z,22.38
2022-12-05T07:40:32.943Z,22.37
2022-12-05T07:41:37.166Z,22.38
2022-12-05T07:42:41.503Z,22.36
2022-12-05T07:43:45.735Z,22.35
2022-12-05T07:44:49.965Z,22.33
2022-12-05T07:45:54.202Z,22.32
2022-12-05T07:46:58.680Z,22.27
2022-12-05T07:48:02.992Z,22.26
2022-12-05T07:49:07.451Z,22.25
2022-12-05T07:50:11.702Z,22.24
2022-12-05T07:51:15.940Z,22.22
2022-12-05T07:52:20.128Z,22.2
2022-12-05T07:53:24.448Z,22.18
2022-12-05T07:54:28.714Z,22.16
2022-12-05T07:55:32.919Z,22.15
2022-12-05T07:56:37.173Z,22.13
2022-12-05T07:57:50.018Z,22.11
2022-12-05T07:58:54.311Z,22.09
2022-12-05T07:59:58.645Z,22.08
2022-12-05T08:01:03.624Z,22.07
2022-12-05T08:02:08.121Z,22.04
2022-12-05T08:03:12.624Z,22.02
2022-12-05T08:04:16.905Z,22.01
2022-12-05T08:05:21.137Z,21.99
2022-12-05T08:06:25.352Z,21.95
2022-12-05T08:07:29.628Z,21.95
2022-12-05T08:08:33.995Z,21.94
2022-12-05T08:09:38.223Z,21.93
2022-12-05T08:10:42.457Z,21.9
2022-12-05T08:11:51.138Z,21.89
2022-12-05T08:12:56.600Z,21.88
2022-12-05T08:14:00.807Z,21.87
2022-12-05T08:15:05.021Z,21.85
2022-12-05T08:16:09.255Z,21.82
2022-12-05T08:17:13.863Z,21.81
2022-12-05T08:18:20.936Z,21.8
2022-12-05T08:19:30.613Z,21.79
2022-12-05T08:20:34.885Z,21.79
2022-12-05T08:21:39.130Z,21.79
2022-12-05T08:22:43.380Z,21.79
2022-12-05T08:23:47.615Z,21.77
2022-12-05T08:24:56.083Z,21.77
2022-12-05T08:26:00.533Z,21.76
2022-12-05T08:27:04.745Z,21.77
2022-12-05T08:28:08.976Z,21.77
2022-12-05T08:29:13.222Z,21.74
2022-12-05T08:30:17.442Z,21.74
2022-12-05T08:31:21.766Z,21.73
2022-12-05T08:32:26.873Z,21.73
2022-12-05T08:33:31.070Z,21.72
2022-12-05T08:34:35.289Z,21.71
2022-12-05T08:35:39.574Z,21.71
2022-12-05T08:36:43.828Z,21.7
2022-12-05T08:37:49.146Z,21.69
2022-12-05T08:38:53.365Z,21.69
2022-12-05T08:39:57.884Z,21.68
2022-12-05T08:41:02.948Z,21.69
2022-12-05T08:42:07.186Z,21.69
2022-12-05T08:43:11.402Z,21.68
2022-12-05T08:44:15.656Z,21.67
2022-12-05T08:45:19.896Z,21.65
2022-12-05T08:46:24.221Z,21.64
2022-12-05T08:47:28.814Z,21.65
2022-12-05T08:48:35.573Z,21.64
2022-12-05T08:49:39.864Z,21.63
2022-12-05T08:50:44.088Z,21.65
2022-12-05T08:51:48.336Z,21.67
2022-12-05T08:52:52.553Z,21.73
2022-12-05T08:53:56.787Z,21.82
2022-12-05T08:55:01.197Z,21.89
2022-12-05T08:56:05.517Z,22
2022-12-05T08:57:13.176Z,22.09
2022-12-05T08:58:17.447Z,22.19
2022-12-05T08:59:21.670Z,22.27
2022-12-05T09:00:25.926Z,22.33
2022-12-05T09:01:30.334Z,22.39
2022-12-05T09:02:34.984Z,22.43
2022-12-05T09:03:42.073Z,22.47
2022-12-05T09:04:53.966Z,22.51
2022-12-05T09:06:11.341Z,22.52
2022-12-05T09:07:15.550Z,22.54
2022-12-05T09:08:19.952Z,22.53
2022-12-05T09:09:24.786Z,22.53
2022-12-05T09:10:29.010Z,22.52
2022-12-05T09:11:33.267Z,22.49
2022-12-05T09:12:37.494Z,22.48
2022-12-05T09:13:41.766Z,22.47
2022-12-05T09:14:46.038Z,22.46
2022-12-05T09:15:50.351Z,22.42
2022-12-05T09:16:54.727Z,22.4
2022-12-05T09:17:58.940Z,22.37
2022-12-05T09:19:03.340Z,22.36
2022-12-05T09:20:07.563Z,22.34
2022-12-05T09:21:11.780Z,22.31
2022-12-05T09:22:16.029Z,22.31
2022-12-05T09:23:20.953Z,22.28
2022-12-05T09:24:25.206Z,22.24
2022-12-05T09:25:29.421Z,22.23
2022-12-05T09:26:33.994Z,22.21
2022-12-05T09:27:38.558Z,22.19
2022-12-05T09:28:42.870Z,22.17
2022-12-05T09:29:47.132Z,22.15
2022-12-05T09:30:51.544Z,22.13
2022-12-05T09:31:55.953Z,22.11
2022-12-05T09:33:00.189Z,22.09
2022-12-05T09:34:04.454Z,22.07
2022-12-05T09:35:08.683Z,22.05
2022-12-05T09:36:12.913Z,22.03
2022-12-05T09:37:37.927Z,22
2022-12-05T09:38:43.676Z,21.98
2022-12-05T09:39:47.899Z,21.95
2022-12-05T09:40:55.194Z,21.94
2022-12-05T09:42:02.426Z,21.92
2022-12-05T09:43:06.713Z,21.91
2022-12-05T09:44:10.929Z,21.88
2022-12-05T09:45:15.143Z,21.87
2022-12-05T09:46:19.386Z,21.86
2022-12-05T09:47:23.847Z,21.84
2022-12-05T09:48:28.129Z,21.82
2022-12-05T09:49:32.367Z,21.81
2022-12-05T09:50:36.641Z,21.81
2022-12-05T09:51:40.899Z,21.8
2022-12-05T09:52:45.157Z,21.78
2022-12-05T09:53:49.394Z,21.77
2022-12-05T09:54:53.629Z,21.76
2022-12-05T09:55:58.944Z,21.77
2022-12-05T09:57:03.187Z,21.77
2022-12-05T09:58:07.430Z,21.79
2022-12-05T09:59:11.682Z,21.83
2022-12-05T10:00:15.903Z,21.89
2022-12-05T10:01:20.244Z,21.96
2022-12-05T10:02:24.652Z,22.04
2022-12-05T10:03:28.894Z,22.12
2022-12-05T10:04:33.256Z,22.15
2022-12-05T10:05:37.797Z,22.21
2022-12-05T10:06:42.024Z,22.21
2022-12-05T10:07:46.354Z,22.23
2022-12-05T10:08:50.764Z,22.26
2022-12-05T10:09:55.001Z,22.26
2022-12-05T10:10:59.240Z,22.26
2022-12-05T10:12:03.487Z,22.28
2022-12-05T10:13:07.786Z,22.25
2022-12-05T10:14:12.043Z,22.25
2022-12-05T10:15:16.278Z,22.23
2022-12-05T10:16:20.588Z,22.21
2022-12-05T10:17:24.983Z,22.19
2022-12-05T10:18:29.233Z,22.18
2022-12-05T10:19:33.517Z,22.16
2022-12-05T10:20:37.757Z,22.15
2022-12-05T10:21:42.025Z,22.13
2022-12-05T10:22:46.260Z,22.11
2022-12-05T10:23:57.377Z,22.11
2022-12-05T10:25:07.072Z,22.1
2022-12-05T10:26:11.313Z,22.08
2022-12-05T10:27:15.512Z,22.07
2022-12-05T10:28:19.751Z,22.06
2022-12-05T10:29:23.984Z,22.05
2022-12-05T10:30:28.290Z,22.04
2022-12-05T10:31:32.610Z,22.02
2022-12-05T10:32:37.103Z,22
2022-12-05T10:33:41.343Z,21.98
2022-12-05T10:34:45.560Z,21.96
2022-12-05T10:35:49.832Z,21.94
2022-12-05T10:36:54.032Z,21.93
2022-12-05T10:37:58.302Z,21.91
2022-12-05T10:39:05.780Z,21.89
2022-12-05T10:40:14.819Z,21.88
2022-12-05T10:41:19.043Z,21.87
2022-12-05T10:42:23.288Z,21.86
2022-12-05T10:43:27.486Z,21.84
2022-12-05T10:44:31.726Z,21.82
2022-12-05T10:45:35.961Z,21.81
2022-12-05T10:46:40.268Z,21.8
2022-12-05T10:47:44.819Z,21.79
2022-12-05T10:48:49.040Z,21.77
2022-12-05T10:49:53.268Z,21.77
2022-12-05T10:50:57.480Z,21.76
2022-12-05T10:52:01.777Z,21.75
2022-12-05T10:53:06.051Z,21.74
2022-12-05T10:54:10.285Z,21.73
2022-12-05T10:55:14.539Z,21.72
2022-12-05T10:56:34.294Z,21.73
2022-12-05T10:57:41.063Z,21.74
2022-12-05T10:58:45.285Z,21.75
2022-12-05T10:59:50.220Z,21.76
2022-12-05T11:00:57.798Z,21.75
2022-12-05T11:02:03.075Z,21.75
2022-12-05T11:03:08.355Z,21.79
2022-12-05T11:04:13.934Z,21.84
2022-12-05T11:05:18.308Z,21.92
2022-12-05T11:06:22.686Z,22.01
2022-12-05T11:07:26.914Z,22.1
2022-12-05T11:09:02.302Z,22.19
2022-12-05T11:10:08.902Z,22.31
2022-12-05T11:11:13.198Z,22.36
2022-12-05T11:12:17.464Z,22.4
2022-12-05T11:13:21.683Z,22.42
2022-12-05T11:14:25.895Z,22.42
2022-12-05T11:15:30.132Z,22.42
2022-12-05T11:16:34.492Z,22.43
2022-12-05T11:17:39.048Z,22.41
2022-12-05T11:18:43.322Z,22.39
2022-12-05T11:19:47.565Z,22.39
2022-12-05T11:20:51.806Z,22.38
2022-12-05T11:21:56.044Z,22.37
2022-12-05T11:23:00.262Z,22.34
2022-12-05T11:24:04.480Z,22.33
2022-12-05T11:25:08.733Z,22.31
2022-12-05T11:26:12.965Z,22.28
2022-12-05T11:27:17.188Z,22.25
2022-12-05T11:28:21.572Z,22.24
2022-12-05T11:29:25.911Z,22.23
2022-12-05T11:30:30.140Z,22.21
2022-12-05T11:31:34.457Z,22.18
2022-12-05T11:32:38.830Z,22.15
2022-12-05T11:33:43.071Z,22.15
2022-12-05T11:34:47.324Z,22.14
2022-12-05T11:35:51.538Z,22.11
2022-12-05T11:36:55.817Z,22.09
2022-12-05T11:38:00.056Z,22.08
2022-12-05T11:39:04.321Z,22.06
2022-12-05T11:40:08.542Z,22.05
2022-12-05T11:41:12.822Z,22.02
2022-12-05T11:42:17.052Z,22.01
2022-12-05T11:43:21.276Z,21.99
2022-12-05T11:44:25.550Z,21.96
2022-12-05T11:45:29.757Z,21.94
2022-12-05T11:46:34.086Z,21.94
2022-12-05T11:47:38.431Z,21.92
2022-12-05T11:48:42.656Z,21.9
2022-12-05T11:49:46.884Z,21.89
2022-12-05T11:50:51.087Z,21.87
2022-12-05T11:51:55.350Z,21.86
2022-12-05T11:52:59.574Z,21.84
2022-12-05T11:54:03.792Z,21.83
2022-12-05T11:55:08.022Z,21.83
2022-12-05T11:56:12.225Z,21.81
2022-12-05T11:57:16.460Z,21.79
2022-12-05T11:58:20.661Z,21.78
2022-12-05T11:59:24.897Z,21.77
2022-12-05T12:00:31.562Z,21.76
2022-12-05T12:01:35.879Z,21.77
2022-12-05T12:02:40.546Z,21.75
2022-12-05T12:03:45.313Z,21.77
2022-12-05T12:04:49.722Z,21.74
2022-12-05T12:05:53.972Z,21.73
2022-12-05T12:06:58.211Z,21.74
2022-12-05T12:08:02.486Z,21.77
2022-12-05T12:09:07.007Z,21.84
2022-12-05T12:10:11.241Z,21.91
2022-12-05T12:11:15.480Z,22
2022-12-05T12:12:19.735Z,22.09
2022-12-05T12:13:23.981Z,22.17
2022-12-05T12:14:28.217Z,22.25
2022-12-05T12:15:32.439Z,22.3
2022-12-05T12:16:36.778Z,22.35
2022-12-05T12:17:41.238Z,22.35
2022-12-05T12:18:45.489Z,22.36
2022-12-05T12:19:49.737Z,22.35
2022-12-05T12:20:54.007Z,22.37
2022-12-05T12:21:58.217Z,22.34
2022-12-05T12:23:02.498Z,22.34
2022-12-05T12:24:06.761Z,22.33
2022-12-05T12:25:10.975Z,22.32
2022-12-05T12:26:15.194Z,22.32
2022-12-05T12:27:19.463Z,22.3
2022-12-05T12:28:23.704Z,22.28
2022-12-05T12:29:27.932Z,22.28
2022-12-05T12:30:32.171Z,22.26
2022-12-05T12:31:36.504Z,22.22
2022-12-05T12:32:40.909Z,22.21
2022-12-05T12:33:45.146Z,22.2
2022-12-05T12:34:49.389Z,22.19
2022-12-05T12:35:53.655Z,22.17
2022-12-05T12:36:57.911Z,22.16
2022-12-05T12:38:02.126Z,22.15
2022-12-05T12:39:06.362Z,22.14
2022-12-05T12:40:10.665Z,22.11
2022-12-05T12:41:14.925Z,22.09
2022-12-05T12:42:19.139Z,22.08
2022-12-05T12:43:51.946Z,22.07
2022-12-05T12:44:58.300Z,22.03
2022-12-05T12:46:08.061Z,22.01
2022-12-05T12:47:15.245Z,22
2022-12-05T12:48:19.449Z,21.99
2022-12-05T12:49:23.647Z,21.96
2022-12-05T12:50:27.862Z,21.94
2022-12-05T12:51:32.184Z,21.92
2022-12-05T12:52:36.478Z,21.92
2022-12-05T12:53:40.697Z,21.89
2022-12-05T12:55:03.260Z,21.88
2022-12-05T12:56:08.618Z,21.87
2022-12-05T12:57:15.316Z,21.86
2022-12-05T12:58:26.819Z,21.84
2022-12-05T12:59:31.032Z,21.82
2022-12-05T13:00:35.276Z,21.81
2022-12-05T13:01:39.615Z,21.8
2022-12-05T13:02:44.196Z,21.79
2022-12-05T13:03:51.657Z,21.77
2022-12-05T13:04:56.401Z,21.76
2022-12-05T13:06:01.604Z,21.77
2022-12-05T13:07:05.852Z,21.8
2022-12-05T13:08:10.140Z,21.85
2022-12-05T13:09:14.704Z,21.9
2022-12-05T13:10:18.968Z,21.95
2022-12-05T13:11:23.322Z,21.99
2022-12-05T13:12:27.650Z,22.05
2022-12-05T13:13:31.918Z,22.14
2022-12-05T13:14:36.193Z,22.26
2022-12-05T13:15:40.445Z,22.38
2022-12-05T13:16:46.205Z,22.48
2022-12-05T13:17:50.941Z,22.58
2022-12-05T13:18:55.187Z,22.7
2022-12-05T13:20:01.935Z,22.8
2022-12-05T13:21:06.163Z,22.83
2022-12-05T13:22:10.446Z,22.83
2022-12-05T13:23:14.667Z,22.86
2022-12-05T13:24:18.901Z,22.89
2022-12-05T13:25:23.116Z,22.88
2022-12-05T13:26:27.336Z,22.89
2022-12-05T13:27:31.575Z,22.9
2022-12-05T13:28:35.800Z,22.87
2022-12-05T13:29:40.069Z,22.87
2022-12-05T13:30:44.379Z,22.85
2022-12-05T13:31:49.664Z,22.83
2022-12-05T13:32:55.151Z,22.78
2022-12-05T13:33:59.411Z,22.72
2022-12-05T13:35:03.664Z,22.68
2022-12-05T13:36:09.821Z,22.61
2022-12-05T13:37:20.479Z,22.55
2022-12-05T13:38:24.682Z,22.52
2022-12-05T13:39:28.942Z,22.48
2022-12-05T13:40:33.187Z,22.46
2022-12-05T13:41:37.412Z,22.45
2022-12-05T13:42:41.630Z,22.45
2022-12-05T13:43:49.399Z,22.44
2022-12-05T13:45:09.604Z,22.46
2022-12-05T13:46:14.008Z,22.46
2022-12-05T13:47:18.498Z,22.47
2022-12-05T13:48:22.734Z,22.48
2022-12-05T13:49:26.971Z,22.47
2022-12-05T13:50:31.190Z,22.47
2022-12-05T13:51:35.612Z,22.46
2022-12-05T13:52:39.854Z,22.45
2022-12-05T13:53:44.313Z,22.46
2022-12-05T13:54:48.598Z,22.44
2022-12-05T13:55:52.858Z,22.45
2022-12-05T13:56:57.117Z,22.46
2022-12-05T13:58:01.328Z,22.45